Stoverdale, Pennsylvania
Current Conditions -  °F | °C
As of 5:56 PM on Tuesday 27 Jan 2015 (Local Time) from KMDT Reporting Station
Scattered Clouds Scattered Clouds  
Wind Chill: 15°   Ceiling: Unl
Heat Index: 27°   Visibility: 10mi
Dew Point: 17°   Wind: 16mph
Humidity: 66%   Direction: 300°WNW
Pressure: 29.81"   Gusts: NA
Location:  40.2988°N, 76.709°W
Report Text: KMDT 272256Z 30014KT 10SM FEW100 FEW150 SCT250 M03/M08 A2981 RMK AO2 SLP100 T10281083
Loading
Personal Weather Stations






























Interactive Weather Map New forecast layout! Learn more

10-Day Weather Forecast

Advertisements
Track Severe Weather on mobile